Weather at Klaipėda Airfield

Public forecast

Using degrees Celsius for public forecast. Weather courtesy of forecast.io.

Closest aviation weather report (METAR) to Klaipėda Airfield

Report is more than 6 hours old.

Closest report is Palanga International Airport, 16.5 nm (30.5 km) NNW. Retrieved 2022/09/17 18:50 UTC (8 days ago):

EYPA 171850Z 28003KT 240V320 9999 SCT023 13/10 Q0999

Closest aviation forecast (TAF) to Klaipėda Airfield

Forecast is more than 12 hours old.

Closest forecast is Palanga International Airport, 16.5 nm (30.5 km) NNW. Retrieved 2022/09/17 18:18 UTC (8 days ago):

TAF EYPA 171716Z 1718/1818 VRB05KT 6000 BKN020 TEMPO 1718/1724 BKN005 BKN015CB TEMPO 1800/1807 3000 SHRA BKN005 BKN015CB TEMPO 1807/1814 BKN015CB